createdAt,value
2024-02-29T00:00:10.736Z,100423.34
2024-02-29T00:02:38.070Z,100412.09
2024-02-29T00:05:06.457Z,100410.72
2024-02-29T00:07:35.144Z,100412.88
2024-02-29T00:10:02.546Z,100408.19
2024-02-29T00:12:29.952Z,100405.94
2024-02-29T00:14:57.247Z,100400.78
2024-02-29T00:17:24.581Z,100399.09
2024-02-29T00:19:51.914Z,100392.41
2024-02-29T00:22:19.279Z,100392.97
2024-02-29T00:24:47.987Z,100391.38
2024-02-29T00:27:15.345Z,100391.47
2024-02-29T00:29:43.706Z,100390.75
2024-02-29T00:32:11.021Z,100375.97
2024-02-29T00:34:38.317Z,100377.69
2024-02-29T00:37:05.936Z,100380.63
2024-02-29T00:39:33.282Z,100367.34
2024-02-29T00:42:01.987Z,100372.84
2024-02-29T00:44:29.310Z,100360.97
2024-02-29T00:46:56.636Z,100367.03
2024-02-29T00:49:24.020Z,100356.09
2024-02-29T00:51:51.380Z,100355.66
2024-02-29T00:54:18.746Z,100346.84
2024-02-29T00:56:46.059Z,100350.34
2024-02-29T00:59:14.762Z,100347.91
2024-02-29T01:01:42.245Z,100343.34
2024-02-29T01:04:09.684Z,100345.91
2024-02-29T01:06:37.066Z,100344.19
2024-02-29T01:09:04.390Z,100344.44
2024-02-29T01:11:32.676Z,100339.28
2024-02-29T01:14:00.097Z,100331.31
2024-02-29T01:16:28.780Z,100329.97
2024-02-29T01:18:56.186Z,100317.34
2024-02-29T01:21:23.554Z,100326.66
2024-02-29T01:23:50.887Z,100319.78
2024-02-29T01:26:18.216Z,100320.63
2024-02-29T01:28:45.589Z,100310.25
2024-02-29T01:31:13.069Z,100304.97
2024-02-29T01:33:41.899Z,100292.56
2024-02-29T01:36:09.290Z,100283.69
2024-02-29T01:38:36.644Z,100287.47
2024-02-29T01:41:04.262Z,100286.72
2024-02-29T01:43:31.559Z,100273.94
2024-02-29T01:46:12.001Z,100271.94
2024-02-29T01:48:41.197Z,100267.91
2024-02-29T01:51:09.531Z,100256.38
2024-02-29T01:53:36.887Z,100258.19
2024-02-29T01:56:04.824Z,100264.63
2024-02-29T01:58:33.431Z,100260.38
2024-02-29T02:01:01.032Z,100255.50
2024-02-29T02:03:28.715Z,100254.22
2024-02-29T02:05:57.407Z,100256.09
2024-02-29T02:08:25.280Z,100254.56
2024-02-29T02:10:52.662Z,100245.97
2024-02-29T02:13:20.027Z,100238.75
2024-02-29T02:15:47.538Z,100229.09
2024-02-29T02:18:14.885Z,100230.09
2024-02-29T02:20:43.608Z,100225.66
2024-02-29T02:23:10.960Z,100225.00
2024-02-29T02:25:38.277Z,100221.28
2024-02-29T02:28:06.041Z,100209.66
2024-02-29T02:30:33.430Z,100205.81
2024-02-29T02:33:02.097Z,100196.38
2024-02-29T02:35:29.439Z,100197.88
2024-02-29T02:37:58.122Z,100196.47
2024-02-29T02:40:25.594Z,100195.97
2024-02-29T02:42:52.911Z,100184.47
2024-02-29T02:45:20.332Z,100183.13
2024-02-29T02:47:47.692Z,100168.97
2024-02-29T02:50:15.180Z,100166.22
2024-02-29T02:52:42.534Z,100162.59
2024-02-29T02:55:11.315Z,100161.88
2024-02-29T02:57:38.801Z,100156.44
2024-02-29T03:00:07.945Z,100154.97
2024-02-29T03:02:35.297Z,100151.84
2024-02-29T03:05:02.621Z,100145.47
2024-02-29T03:07:29.904Z,100146.81
2024-02-29T03:09:57.387Z,100144.59
2024-02-29T03:12:26.095Z,100134.34
2024-02-29T03:14:53.446Z,100138.50
2024-02-29T03:17:20.786Z,100130.72
2024-02-29T03:19:48.097Z,100124.88
2024-02-29T03:22:15.475Z,100127.09
2024-02-29T03:24:42.804Z,100117.50
2024-02-29T03:27:10.441Z,100119.09
2024-02-29T03:29:39.278Z,100120.63
2024-02-29T03:32:06.773Z,100124.66
2024-02-29T03:34:34.136Z,100120.31
2024-02-29T03:37:01.455Z,100115.03
2024-02-29T03:39:28.756Z,100116.28
2024-02-29T03:41:56.059Z,100102.00
2024-02-29T03:44:23.389Z,100102.44
2024-02-29T03:46:52.430Z,100100.81
2024-02-29T03:49:19.771Z,100104.06
2024-02-29T03:51:47.201Z,100105.53
2024-02-29T03:54:14.584Z,100093.84
2024-02-29T03:56:41.891Z,100101.59
2024-02-29T03:59:09.212Z,100095.69
2024-02-29T04:01:36.656Z,100096.72
2024-02-29T04:04:05.560Z,100087.69
2024-02-29T04:06:32.937Z,100095.31
2024-02-29T04:09:00.274Z,100083.75
2024-02-29T04:11:27.663Z,100079.13
2024-02-29T04:13:54.990Z,100082.63
2024-02-29T04:16:22.387Z,100078.69
2024-02-29T04:18:49.758Z,100074.63
2024-02-29T04:21:18.626Z,100075.81
2024-02-29T04:23:45.961Z,100058.03
2024-02-29T04:26:13.301Z,100062.81
2024-02-29T04:28:40.619Z,100059.53
2024-02-29T04:31:07.935Z,100059.81
2024-02-29T04:33:35.442Z,100056.59
2024-02-29T04:36:02.885Z,100059.13
2024-02-29T04:38:31.582Z,100049.63
2024-02-29T04:40:58.918Z,100044.78
2024-02-29T04:43:26.252Z,100046.75
2024-02-29T04:45:53.564Z,100052.50
2024-02-29T04:48:20.900Z,100050.75
2024-02-29T04:50:48.276Z,100048.56
2024-02-29T04:53:15.595Z,100044.00
2024-02-29T04:55:44.286Z,100044.91
2024-02-29T04:58:11.733Z,100034.19
2024-02-29T05:00:39.170Z,100036.66
2024-02-29T05:03:06.605Z,100032.31
2024-02-29T05:05:33.972Z,100040.03
2024-02-29T05:08:01.298Z,100034.47
2024-02-29T05:10:28.624Z,100034.50
2024-02-29T05:12:57.332Z,100037.28
2024-02-29T05:15:24.703Z,100026.38
2024-02-29T05:17:53.126Z,100026.25
2024-02-29T05:20:20.460Z,100030.69
2024-02-29T05:22:47.766Z,100032.13
2024-02-29T05:25:15.197Z,100028.88
2024-02-29T05:27:42.568Z,100028.50
2024-02-29T05:30:12.521Z,100022.22
2024-02-29T05:32:39.854Z,100016.78
2024-02-29T05:35:08.238Z,100023.78
2024-02-29T05:37:35.586Z,100023.41
2024-02-29T05:40:03.292Z,100019.38
2024-02-29T05:42:30.699Z,100021.78
2024-02-29T05:44:58.009Z,100013.84
2024-02-29T05:47:26.752Z,100014.56
2024-02-29T05:49:54.101Z,100012.97
2024-02-29T05:52:21.619Z,100005.75
2024-02-29T05:54:49.000Z,100004.91
2024-02-29T05:57:16.366Z,99997.69
2024-02-29T05:59:43.705Z,99989.03
2024-02-29T06:02:11.089Z,99991.19
2024-02-29T06:04:39.834Z,99980.97
2024-02-29T06:07:07.169Z,99977.44
2024-02-29T06:09:34.762Z,99977.06
2024-02-29T06:12:02.265Z,99980.31
2024-02-29T06:14:29.585Z,99970.00
2024-02-29T06:16:56.881Z,99965.16
2024-02-29T06:19:24.208Z,99960.13
2024-02-29T06:21:52.921Z,99961.06
2024-02-29T06:24:20.361Z,99963.34
2024-02-29T06:26:47.869Z,99957.72
2024-02-29T06:29:15.238Z,99957.72
2024-02-29T06:31:42.598Z,99949.53
2024-02-29T06:34:10.010Z,99938.69
2024-02-29T06:36:37.440Z,99935.56
2024-02-29T06:39:06.154Z,99928.59
2024-02-29T06:41:33.495Z,99928.81
2024-02-29T06:44:00.828Z,99930.47
2024-02-29T06:46:28.124Z,99928.06
2024-02-29T06:48:55.677Z,99925.88
2024-02-29T06:51:23.046Z,99930.00
2024-02-29T06:53:50.592Z,99937.13
2024-02-29T06:56:19.280Z,99933.91
2024-02-29T06:58:46.589Z,99938.81
2024-02-29T07:01:14.353Z,99932.75
2024-02-29T07:03:41.807Z,99936.75
2024-02-29T07:06:09.134Z,99933.16
2024-02-29T07:08:36.577Z,99928.81
2024-02-29T07:11:04.098Z,99930.50
2024-02-29T07:13:32.850Z,99932.94
2024-02-29T07:16:00.270Z,99930.28
2024-02-29T07:18:27.625Z,99923.53
2024-02-29T07:20:54.927Z,99916.03
2024-02-29T07:23:22.289Z,99917.84
2024-02-29T07:25:49.639Z,99914.81
2024-02-29T07:28:17.085Z,99914.34
2024-02-29T07:30:45.811Z,99917.09
2024-02-29T07:33:13.265Z,99916.19
2024-02-29T07:35:40.700Z,99907.38
2024-02-29T07:38:08.003Z,99903.34
2024-02-29T07:40:35.347Z,99892.94
2024-02-29T07:43:02.769Z,99890.09
2024-02-29T07:45:30.170Z,99894.69
2024-02-29T07:47:59.252Z,99879.75
2024-02-29T07:50:26.595Z,99882.00
2024-02-29T07:52:54.153Z,99880.47
2024-02-29T07:55:21.681Z,99884.59
2024-02-29T07:57:49.176Z,99873.72
2024-02-29T08:00:17.037Z,99874.63
2024-02-29T08:02:44.841Z,99867.53
2024-02-29T08:05:13.794Z,99861.50
2024-02-29T08:07:41.170Z,99859.13
2024-02-29T08:10:09.381Z,99857.88
2024-02-29T08:12:36.749Z,99855.88
2024-02-29T08:15:04.583Z,99861.91
2024-02-29T08:17:31.934Z,99866.59
2024-02-29T08:20:00.389Z,99854.69
2024-02-29T08:22:29.293Z,99852.56
2024-02-29T08:24:56.661Z,99850.16
2024-02-29T08:27:24.685Z,99843.88
2024-02-29T08:29:51.989Z,99838.44
2024-02-29T08:32:19.390Z,99829.44
2024-02-29T08:34:46.797Z,99832.91
2024-02-29T08:37:14.226Z,99831.78
2024-02-29T08:39:43.050Z,99823.84
2024-02-29T08:42:10.401Z,99824.41
2024-02-29T08:44:37.729Z,99818.25
2024-02-29T08:47:05.403Z,99814.75
2024-02-29T08:49:32.832Z,99807.47
2024-02-29T08:52:00.210Z,99802.16
2024-02-29T08:54:27.581Z,99796.25
2024-02-29T08:56:56.294Z,99793.88
2024-02-29T08:59:23.655Z,99796.84
2024-02-29T09:01:51.181Z,99779.66
2024-02-29T09:04:18.679Z,99777.09
2024-02-29T09:06:46.103Z,99776.44
2024-02-29T09:09:13.464Z,99772.91
2024-02-29T09:11:40.804Z,99764.91
2024-02-29T09:14:09.649Z,99768.84
2024-02-29T09:16:37.033Z,99763.66
2024-02-29T09:19:04.747Z,99765.28
2024-02-29T09:21:32.146Z,99759.56
2024-02-29T09:23:59.474Z,99755.59
2024-02-29T09:26:26.797Z,99747.72
2024-02-29T09:28:54.223Z,99730.72
2024-02-29T09:31:23.083Z,99723.88
2024-02-29T09:33:50.480Z,99727.34
2024-02-29T09:36:18.003Z,99711.69
2024-02-29T09:38:45.368Z,99717.72
2024-02-29T09:41:31.935Z,99711.47
2024-02-29T09:44:03.938Z,99712.06
2024-02-29T09:46:32.673Z,99716.97
2024-02-29T09:49:00.252Z,99707.88
2024-02-29T09:51:29.742Z,99701.00
2024-02-29T09:53:57.589Z,99702.88
2024-02-29T09:56:27.382Z,99701.38
2024-02-29T09:58:55.521Z,99705.34
2024-02-29T10:01:23.437Z,99694.38
2024-02-29T10:03:53.285Z,99696.03
2024-02-29T10:06:20.637Z,99692.06
2024-02-29T10:08:48.034Z,99693.44
2024-02-29T10:11:15.594Z,99679.38
2024-02-29T10:13:43.168Z,99682.41
2024-02-29T10:16:11.392Z,99677.38
2024-02-29T10:18:38.858Z,99677.94
2024-02-29T10:21:10.641Z,99673.19
2024-02-29T10:23:38.094Z,99674.72
2024-02-29T10:26:06.336Z,99661.34
2024-02-29T10:28:33.948Z,99661.53
2024-02-29T10:31:01.634Z,99649.28
2024-02-29T10:33:29.499Z,99651.47
2024-02-29T10:35:57.268Z,99648.97
2024-02-29T10:38:26.043Z,99648.47
2024-02-29T10:40:58.939Z,99644.31
2024-02-29T10:43:27.425Z,99645.28
2024-02-29T10:45:55.000Z,99634.25
2024-02-29T10:48:30.721Z,99638.25
2024-02-29T10:51:03.909Z,99636.25
2024-02-29T10:53:43.697Z,99624.38
2024-02-29T10:56:20.480Z,99615.00
2024-02-29T10:58:54.457Z,99608.81
2024-02-29T11:01:22.449Z,99613.34
2024-02-29T11:03:49.824Z,99605.81
2024-02-29T11:06:18.594Z,99602.78
2024-02-29T11:08:47.989Z,99596.06
2024-02-29T11:11:15.415Z,99601.72
2024-02-29T11:13:42.904Z,99597.03
2024-02-29T11:16:10.985Z,99588.31
2024-02-29T11:18:38.369Z,99587.59
2024-02-29T11:21:06.806Z,99592.91
2024-02-29T11:23:34.938Z,99579.41
2024-02-29T11:26:06.919Z,99570.97
2024-02-29T11:28:38.020Z,99571.25
2024-02-29T11:31:17.192Z,99562.47
2024-02-29T11:33:45.438Z,99566.47
2024-02-29T11:36:13.488Z,99560.00
2024-02-29T11:38:41.338Z,99556.28
2024-02-29T11:41:19.386Z,99547.41
2024-02-29T11:43:47.715Z,99544.97
2024-02-29T11:46:15.289Z,99543.97
2024-02-29T11:48:43.032Z,99536.50
2024-02-29T11:51:10.516Z,99531.22
2024-02-29T11:53:39.439Z,99533.69
2024-02-29T11:56:15.163Z,99531.94
2024-02-29T11:58:45.729Z,99508.97
2024-02-29T12:01:14.228Z,99510.19
2024-02-29T12:03:41.809Z,99514.25
2024-02-29T12:06:09.379Z,99504.25
2024-02-29T12:08:39.462Z,99505.94
2024-02-29T12:11:07.606Z,99505.91
2024-02-29T12:13:35.114Z,99491.19
2024-02-29T12:16:04.861Z,99482.84
2024-02-29T12:18:34.682Z,99469.88
2024-02-29T12:21:02.079Z,99463.59
2024-02-29T12:23:31.295Z,99460.09
2024-02-29T12:26:07.770Z,99456.75
2024-02-29T12:28:36.007Z,99444.72
2024-02-29T12:31:05.778Z,99441.41
2024-02-29T12:33:33.434Z,99435.91
2024-02-29T12:36:01.267Z,99428.88
2024-02-29T12:38:28.611Z,99434.06
2024-02-29T12:43:46.862Z,99425.19
2024-02-29T12:46:16.736Z,99428.97
2024-02-29T12:48:44.718Z,99423.16
2024-02-29T12:51:12.082Z,99425.09
2024-02-29T12:53:39.395Z,99416.78
2024-02-29T12:56:06.829Z,99429.84
2024-02-29T12:58:34.304Z,99411.59
2024-02-29T13:01:01.839Z,99410.34
2024-02-29T13:03:30.759Z,99392.72
2024-02-29T13:05:58.078Z,99394.19
2024-02-29T13:08:25.404Z,99395.41
2024-02-29T13:10:52.807Z,99391.78
2024-02-29T13:13:20.164Z,99385.88
2024-02-29T13:15:47.553Z,99395.59
2024-02-29T13:18:15.003Z,99394.53
2024-02-29T13:20:43.716Z,99391.13
2024-02-29T13:23:11.069Z,99388.72
2024-02-29T13:25:38.560Z,99367.47
2024-02-29T13:28:06.173Z,99378.28
2024-02-29T13:30:48.822Z,99352.97
2024-02-29T13:33:16.266Z,99372.69
2024-02-29T13:35:45.031Z,99368.53
2024-02-29T13:38:12.417Z,99376.28
2024-02-29T13:40:39.741Z,99372.00
2024-02-29T13:43:08.048Z,99369.16
2024-02-29T13:45:37.712Z,99363.84
2024-02-29T13:48:05.773Z,99369.03
2024-02-29T13:50:33.196Z,99372.72
2024-02-29T13:53:01.887Z,99373.13
2024-02-29T13:55:29.268Z,99368.09
2024-02-29T13:57:56.810Z,99364.59
2024-02-29T14:00:24.214Z,99359.19
2024-02-29T14:02:51.549Z,99365.47
2024-02-29T14:05:18.877Z,99375.41
2024-02-29T14:07:48.755Z,99365.19
2024-02-29T14:10:18.283Z,99364.41
2024-02-29T14:12:45.619Z,99370.88
2024-02-29T14:15:12.956Z,99368.84
2024-02-29T14:17:40.389Z,99369.13
2024-02-29T14:20:08.363Z,99357.53
2024-02-29T14:22:35.733Z,99355.44
2024-02-29T14:25:03.417Z,99363.31
2024-02-29T14:27:32.320Z,99354.34
2024-02-29T14:29:59.681Z,99353.09
2024-02-29T14:32:27.081Z,99340.06
2024-02-29T14:34:54.388Z,99349.66
2024-02-29T14:37:21.842Z,99339.63
2024-02-29T14:39:49.394Z,99340.69
2024-02-29T14:42:16.724Z,99344.94
2024-02-29T14:44:45.418Z,99343.53
2024-02-29T14:47:12.796Z,99340.78
2024-02-29T14:49:40.143Z,99342.44
2024-02-29T14:52:07.824Z,99341.63
2024-02-29T14:54:35.340Z,99343.47
2024-02-29T14:57:02.939Z,99338.34
2024-02-29T14:59:30.280Z,99337.38
2024-02-29T15:01:59.105Z,99328.28
2024-02-29T15:04:26.604Z,99333.19
2024-02-29T15:06:54.101Z,99338.56
2024-02-29T15:09:21.566Z,99340.97
2024-02-29T15:11:48.999Z,99336.06
2024-02-29T15:14:16.879Z,99343.09
2024-02-29T15:16:44.856Z,99338.56
2024-02-29T15:19:13.675Z,99350.44
2024-02-29T15:21:41.103Z,99338.81
2024-02-29T15:24:08.447Z,99333.44
2024-02-29T15:26:35.793Z,99327.81
2024-02-29T15:29:03.145Z,99332.16
2024-02-29T15:31:30.561Z,99337.50
2024-02-29T15:33:58.583Z,99343.34
2024-02-29T15:36:27.345Z,99347.00
2024-02-29T15:38:54.763Z,99360.03
2024-02-29T15:41:22.085Z,99360.22
2024-02-29T15:43:49.509Z,99355.84
2024-02-29T15:46:17.211Z,99363.63
2024-02-29T15:48:45.172Z,99373.81
2024-02-29T15:51:12.540Z,99375.25
2024-02-29T15:53:41.576Z,99373.50
2024-02-29T15:56:08.976Z,99388.44
2024-02-29T15:58:36.693Z,99373.22
2024-02-29T16:01:04.320Z,99379.22
2024-02-29T16:03:31.945Z,99370.38
2024-02-29T16:05:59.253Z,99354.88
2024-02-29T16:08:26.580Z,99359.19
2024-02-29T16:10:55.357Z,99352.47
2024-02-29T16:13:22.860Z,99341.59
2024-02-29T16:15:50.325Z,99342.91
2024-02-29T16:18:17.740Z,99351.38
2024-02-29T16:20:45.124Z,99346.13
2024-02-29T16:23:12.465Z,99338.06
2024-02-29T16:25:39.893Z,99341.53
2024-02-29T16:28:08.715Z,99340.56
2024-02-29T16:30:36.043Z,99343.31
2024-02-29T16:33:03.740Z,99334.81
2024-02-29T16:35:31.203Z,99346.03
2024-02-29T16:37:59.780Z,99355.09
2024-02-29T16:40:27.274Z,99351.78
2024-02-29T16:42:54.785Z,99375.91
2024-02-29T16:45:23.546Z,99372.56
2024-02-29T16:47:50.980Z,99376.72
2024-02-29T16:50:18.516Z,99390.28
2024-02-29T16:52:45.856Z,99415.47
2024-02-29T16:55:13.730Z,99430.63
2024-02-29T16:57:41.480Z,99421.00
2024-02-29T17:00:10.157Z,99428.75
2024-02-29T17:02:38.940Z,99435.44
2024-02-29T17:05:06.445Z,99411.63
2024-02-29T17:07:33.808Z,99435.06
2024-02-29T17:10:01.240Z,99451.97
2024-02-29T17:12:28.670Z,99451.59
2024-02-29T17:14:56.018Z,99442.53
2024-02-29T17:17:23.450Z,99453.16
2024-02-29T17:19:52.201Z,99460.16
2024-02-29T17:22:19.544Z,99465.28
2024-02-29T17:24:46.944Z,99458.47
2024-02-29T17:27:14.528Z,99470.03
2024-02-29T17:29:42.015Z,99465.47
2024-02-29T17:32:09.439Z,99465.72
2024-02-29T17:34:36.758Z,99460.75
2024-02-29T17:37:05.674Z,99468.84
2024-02-29T17:39:33.014Z,99475.06
2024-02-29T17:42:00.359Z,99469.81
2024-02-29T17:44:28.034Z,99462.44
2024-02-29T17:46:55.353Z,99464.13
2024-02-29T17:49:22.813Z,99475.16
2024-02-29T17:51:50.229Z,99476.06
2024-02-29T17:54:18.993Z,99469.69
2024-02-29T17:56:51.791Z,99474.63
2024-02-29T17:59:20.099Z,99464.78
2024-02-29T18:01:47.539Z,99473.69
2024-02-29T18:04:14.950Z,99478.72
2024-02-29T18:06:42.469Z,99483.00
2024-02-29T18:09:09.813Z,99479.94
2024-02-29T18:11:39.042Z,99492.50
2024-02-29T18:14:06.456Z,99490.28
2024-02-29T18:16:34.442Z,99492.66
2024-02-29T18:19:02.078Z,99493.25
2024-02-29T18:21:29.557Z,99492.41
2024-02-29T18:23:56.881Z,99498.13
2024-02-29T18:26:24.310Z,99512.31
2024-02-29T18:28:53.005Z,99501.59
2024-02-29T18:31:20.351Z,99519.81
2024-02-29T18:33:47.776Z,99523.88
2024-02-29T18:36:15.105Z,99525.28
2024-02-29T18:38:42.436Z,99517.75
2024-02-29T18:41:09.799Z,99529.88
2024-02-29T18:43:37.111Z,99536.47
2024-02-29T18:46:06.874Z,99540.84
2024-02-29T18:48:34.775Z,99544.78
2024-02-29T18:51:02.151Z,99540.50
2024-02-29T18:53:29.516Z,99552.69
2024-02-29T18:55:56.862Z,99563.31
2024-02-29T18:58:24.316Z,99561.63
2024-02-29T19:00:51.843Z,99573.34
2024-02-29T19:03:20.587Z,99574.16
2024-02-29T19:05:47.929Z,99583.41
2024-02-29T19:08:15.297Z,99577.84
2024-02-29T19:10:42.865Z,99577.56
2024-02-29T19:13:10.327Z,99580.63
2024-02-29T19:15:37.697Z,99568.28
2024-02-29T19:18:05.500Z,99574.56
2024-02-29T19:20:34.277Z,99578.38
2024-02-29T19:23:01.715Z,99593.97
2024-02-29T19:25:29.113Z,99578.44
2024-02-29T19:27:56.537Z,99580.53
2024-02-29T19:30:23.928Z,99586.94
2024-02-29T19:32:51.288Z,99585.94
2024-02-29T19:35:18.712Z,99587.38
2024-02-29T19:37:48.167Z,99598.00
2024-02-29T19:40:15.719Z,99600.81
2024-02-29T19:42:43.225Z,99602.06
2024-02-29T19:45:11.470Z,99608.38
2024-02-29T19:47:39.283Z,99602.38
2024-02-29T19:50:07.835Z,99615.97
2024-02-29T19:52:36.460Z,99614.56
2024-02-29T19:55:06.733Z,99617.31
2024-02-29T19:57:34.318Z,99618.44
2024-02-29T20:00:01.658Z,99618.44
2024-02-29T20:02:29.269Z,99620.41
2024-02-29T20:04:56.589Z,99623.06
2024-02-29T20:07:24.023Z,99619.00
2024-02-29T20:09:51.402Z,99619.28
2024-02-29T20:12:20.208Z,99623.19
2024-02-29T20:14:47.735Z,99623.47
2024-02-29T20:17:15.152Z,99618.72
2024-02-29T20:19:42.700Z,99620.13
2024-02-29T20:22:10.386Z,99635.22
2024-02-29T20:24:37.752Z,99618.16
2024-02-29T20:27:05.185Z,99618.63
2024-02-29T20:29:33.881Z,99622.09
2024-02-29T20:32:01.229Z,99623.91
2024-02-29T20:34:28.671Z,99628.94
2024-02-29T20:36:56.147Z,99629.06
2024-02-29T20:39:23.520Z,99631.31
2024-02-29T20:41:50.844Z,99642.19
2024-02-29T20:44:18.244Z,99647.91
2024-02-29T20:46:46.996Z,99655.91
2024-02-29T20:49:14.486Z,99653.09
2024-02-29T20:51:41.891Z,99650.47
2024-02-29T20:54:09.313Z,99659.00
2024-02-29T20:56:36.780Z,99652.56
2024-02-29T20:59:04.130Z,99663.75
2024-02-29T21:01:31.524Z,99666.84
2024-02-29T21:04:00.364Z,99672.41
2024-02-29T21:06:27.965Z,99676.91
2024-02-29T21:08:55.295Z,99682.47
2024-02-29T21:11:22.676Z,99685.50
2024-02-29T21:13:50.070Z,99688.44
2024-02-29T21:16:17.443Z,99699.75
2024-02-29T21:18:44.812Z,99703.38
2024-02-29T21:21:15.137Z,99709.81
2024-02-29T21:23:43.575Z,99702.28
2024-02-29T21:26:10.869Z,99712.31
2024-02-29T21:28:38.272Z,99707.94
2024-02-29T21:31:05.672Z,99700.88
2024-02-29T21:33:33.006Z,99716.19
2024-02-29T21:36:00.330Z,99722.63
2024-02-29T21:38:29.121Z,99719.84
2024-02-29T21:40:56.654Z,99718.31
2024-02-29T21:43:24.258Z,99721.56
2024-02-29T21:45:51.846Z,99729.44
2024-02-29T21:48:19.169Z,99720.25
2024-02-29T21:50:46.495Z,99722.81
2024-02-29T21:53:13.858Z,99718.34
2024-02-29T21:55:42.546Z,99716.19
2024-02-29T21:58:09.933Z,99709.22
2024-02-29T22:00:37.373Z,99712.84
2024-02-29T22:03:05.235Z,99709.09
2024-02-29T22:05:32.584Z,99715.34
2024-02-29T22:07:59.912Z,99709.97
2024-02-29T22:10:27.774Z,99697.09
2024-02-29T22:12:56.661Z,99717.84
2024-02-29T22:15:23.995Z,99705.25
2024-02-29T22:17:51.366Z,99702.63
2024-02-29T22:20:18.764Z,99709.44
2024-02-29T22:22:46.088Z,99716.97
2024-02-29T22:25:17.137Z,99720.88
2024-02-29T22:27:44.577Z,99723.66
2024-02-29T22:30:14.392Z,99747.06
2024-02-29T22:32:41.754Z,99732.25
2024-02-29T22:35:09.389Z,99743.31
2024-02-29T22:37:36.837Z,99750.06
2024-02-29T22:40:05.661Z,99747.06
2024-02-29T22:42:33.028Z,99751.47
2024-02-29T22:45:00.331Z,99754.38
2024-02-29T22:47:29.073Z,99750.22
2024-02-29T22:49:56.425Z,99753.50
2024-02-29T22:52:23.897Z,99753.78
2024-02-29T22:54:51.281Z,99754.75
2024-02-29T22:57:18.601Z,99752.44
2024-02-29T22:59:45.915Z,99739.75
2024-02-29T23:02:13.428Z,99736.06
2024-02-29T23:04:42.141Z,99741.03
2024-02-29T23:07:09.546Z,99720.53
2024-02-29T23:09:36.897Z,99733.59
2024-02-29T23:12:04.526Z,99749.19
2024-02-29T23:14:31.985Z,99758.13
2024-02-29T23:16:59.360Z,99765.06
2024-02-29T23:19:26.738Z,99771.78
2024-02-29T23:21:55.452Z,99764.28
2024-02-29T23:24:22.814Z,99757.03
2024-02-29T23:26:50.125Z,99763.50
2024-02-29T23:29:17.517Z,99772.25
2024-02-29T23:31:44.830Z,99764.47
2024-02-29T23:34:12.164Z,99764.47
2024-02-29T23:36:39.523Z,99755.28
2024-02-29T23:39:08.207Z,99758.13
2024-02-29T23:41:35.543Z,99764.22
2024-02-29T23:44:02.892Z,99772.09
2024-02-29T23:46:30.321Z,99771.22
2024-02-29T23:48:57.676Z,99778.19
2024-02-29T23:51:25.017Z,99772.63
2024-02-29T23:53:52.345Z,99773.56
2024-02-29T23:56:21.034Z,99782.16
2024-02-29T23:58:48.381Z,99781.31
